sensor_id;sensor_type;location;lat;lon;timestamp;pressure;altitude;pressure_sealevel;temperature;humidity
80103;BME280;69865;47.648;19.030;2023-12-29T00:00:17;100997.66;;;-0.41;100.00
80103;BME280;69865;47.648;19.030;2023-12-29T00:00:50;100998.44;;;-0.39;100.00
80103;BME280;69865;47.648;19.030;2023-12-29T00:01:22;101002.63;;;-0.35;100.00
80103;BME280;69865;47.648;19.030;2023-12-29T00:01:54;100997.34;;;-0.32;100.00
80103;BME280;69865;47.648;19.030;2023-12-29T00:02:27;100992.97;;;-0.30;100.00
80103;BME280;69865;47.648;19.030;2023-12-29T00:02:59;100996.31;;;-0.26;100.00
80103;BME280;69865;47.648;19.030;2023-12-29T00:03:31;100992.72;;;-0.22;100.00
80103;BME280;69865;47.648;19.030;2023-12-29T00:04:04;100989.97;;;-0.16;100.00
80103;BME280;69865;47.648;19.030;2023-12-29T00:04:36;100997.63;;;-0.13;100.00
80103;BME280;69865;47.648;19.030;2023-12-29T00:05:08;100991.63;;;-0.15;100.00
80103;BME280;69865;47.648;19.030;2023-12-29T00:05:40;100995.88;;;-0.13;100.00
80103;BME280;69865;47.648;19.030;2023-12-29T00:06:13;100992.34;;;-0.10;100.00
80103;BME280;69865;47.648;19.030;2023-12-29T00:06:45;100993.22;;;-0.11;100.00
80103;BME280;69865;47.648;19.030;2023-12-29T00:07:34;100991.34;;;-0.06;100.00
80103;BME280;69865;47.648;19.030;2023-12-29T00:08:06;100988.00;;;-0.10;100.00
80103;BME280;69865;47.648;19.030;2023-12-29T00:08:38;100985.47;;;-0.11;100.00
80103;BME280;69865;47.648;19.030;2023-12-29T00:09:11;100982.81;;;-0.08;100.00
80103;BME280;69865;47.648;19.030;2023-12-29T00:09:45;100983.63;;;-0.08;100.00
80103;BME280;69865;47.648;19.030;2023-12-29T00:10:17;100983.63;;;-0.08;100.00
80103;BME280;69865;47.648;19.030;2023-12-29T00:10:50;100980.03;;;-0.04;100.00
80103;BME280;69865;47.648;19.030;2023-12-29T00:11:22;100978.28;;;-0.03;100.00
80103;BME280;69865;47.648;19.030;2023-12-29T00:11:54;100973.19;;;-0.05;100.00
80103;BME280;69865;47.648;19.030;2023-12-29T00:12:27;100976.53;;;-0.01;100.00
80103;BME280;69865;47.648;19.030;2023-12-29T00:12:59;100976.63;;;-0.04;100.00
80103;BME280;69865;47.648;19.030;2023-12-29T00:13:32;100977.50;;;-0.05;100.00
80103;BME280;69865;47.648;19.030;2023-12-29T00:14:05;100983.63;;;-0.08;100.00
80103;BME280;69865;47.648;19.030;2023-12-29T00:14:39;100983.53;;;-0.05;100.00
80103;BME280;69865;47.648;19.030;2023-12-29T00:15:11;100975.63;;;0.00;100.00
80103;BME280;69865;47.648;19.030;2023-12-29T00:15:43;100972.97;;;0.02;100.00
80103;BME280;69865;47.648;19.030;2023-12-29T00:16:15;100975.56;;;0.02;100.00
80103;BME280;69865;47.648;19.030;2023-12-29T00:16:48;100967.75;;;0.03;100.00
80103;BME280;69865;47.648;19.030;2023-12-29T00:17:20;100970.38;;;0.02;100.00
80103;BME280;69865;47.648;19.030;2023-12-29T00:17:52;100966.28;;;-0.04;100.00
80103;BME280;69865;47.648;19.030;2023-12-29T00:18:25;100968.03;;;-0.06;100.00
80103;BME280;69865;47.648;19.030;2023-12-29T00:18:57;100964.72;;;-0.10;100.00
80103;BME280;69865;47.648;19.030;2023-12-29T00:19:29;100968.19;;;-0.11;100.00
80103;BME280;69865;47.648;19.030;2023-12-29T00:20:02;100963.09;;;-0.12;100.00
80103;BME280;69865;47.648;19.030;2023-12-29T00:20:34;100960.44;;;-0.11;100.00
80103;BME280;69865;47.648;19.030;2023-12-29T00:21:13;100969.09;;;-0.12;100.00
80103;BME280;69865;47.648;19.030;2023-12-29T00:21:47;100963.84;;;-0.09;100.00
80103;BME280;69865;47.648;19.030;2023-12-29T00:22:19;100966.31;;;-0.06;100.00
80103;BME280;69865;47.648;19.030;2023-12-29T00:22:51;100971.38;;;-0.03;100.00
80103;BME280;69865;47.648;19.030;2023-12-29T00:23:23;100965.31;;;-0.02;100.00
80103;BME280;69865;47.648;19.030;2023-12-29T00:23:56;100955.09;;;-0.06;100.00
80103;BME280;69865;47.648;19.030;2023-12-29T00:24:29;100960.88;;;0.02;100.00
80103;BME280;69865;47.648;19.030;2023-12-29T00:25:01;100969.41;;;0.04;100.00
80103;BME280;69865;47.648;19.030;2023-12-29T00:25:35;100966.19;;;-0.03;100.00
80103;BME280;69865;47.648;19.030;2023-12-29T00:26:07;100966.09;;;0.00;100.00
80103;BME280;69865;47.648;19.030;2023-12-29T00:26:40;100970.44;;;0.00;100.00
80103;BME280;69865;47.648;19.030;2023-12-29T00:27:12;100961.84;;;-0.01;100.00
80103;BME280;69865;47.648;19.030;2023-12-29T00:27:44;100968.78;;;-0.03;100.00
80103;BME280;69865;47.648;19.030;2023-12-29T00:28:16;100966.34;;;-0.07;100.00
80103;BME280;69865;47.648;19.030;2023-12-29T00:28:48;100967.31;;;-0.10;100.00
80103;BME280;69865;47.648;19.030;2023-12-29T00:29:22;100964.75;;;-0.11;100.00
80103;BME280;69865;47.648;19.030;2023-12-29T00:29:55;100969.16;;;-0.13;100.00
80103;BME280;69865;47.648;19.030;2023-12-29T00:30:28;100973.59;;;-0.17;100.00
80103;BME280;69865;47.648;19.030;2023-12-29T00:31:20;100964.09;;;-0.16;100.00
80103;BME280;69865;47.648;19.030;2023-12-29T00:31:52;100964.09;;;-0.16;100.00
80103;BME280;69865;47.648;19.030;2023-12-29T00:32:25;100968.41;;;-0.17;100.00
80103;BME280;69865;47.648;19.030;2023-12-29T00:32:59;100965.84;;;-0.18;100.00
80103;BME280;69865;47.648;19.030;2023-12-29T00:33:31;100964.97;;;-0.17;100.00
80103;BME280;69865;47.648;19.030;2023-12-29T00:34:04;100963.22;;;-0.17;100.00
80103;BME280;69865;47.648;19.030;2023-12-29T00:34:36;100958.94;;;-0.18;100.00
80103;BME280;69865;47.648;19.030;2023-12-29T00:35:09;100958.19;;;-0.21;100.00
80103;BME280;69865;47.648;19.030;2023-12-29T00:35:41;100957.47;;;-0.25;100.00
80103;BME280;69865;47.648;19.030;2023-12-29T00:36:15;100961.72;;;-0.24;100.00
80103;BME280;69865;47.648;19.030;2023-12-29T00:36:47;100962.66;;;-0.26;100.00
80103;BME280;69865;47.648;19.030;2023-12-29T00:37:20;100960.97;;;-0.27;100.00
80103;BME280;69865;47.648;19.030;2023-12-29T00:37:52;100961.13;;;-0.32;100.00
80103;BME280;69865;47.648;19.030;2023-12-29T00:38:25;100958.50;;;-0.30;100.00
80103;BME280;69865;47.648;19.030;2023-12-29T00:38:57;100953.41;;;-0.33;100.00
80103;BME280;69865;47.648;19.030;2023-12-29T00:39:30;100958.53;;;-0.32;100.00
80103;BME280;69865;47.648;19.030;2023-12-29T00:40:04;100957.72;;;-0.32;100.00
80103;BME280;69865;47.648;19.030;2023-12-29T00:40:37;100961.13;;;-0.32;100.00
80103;BME280;69865;47.648;19.030;2023-12-29T00:41:11;100957.75;;;-0.34;100.00
80103;BME280;69865;47.648;19.030;2023-12-29T00:41:44;100956.00;;;-0.33;100.00
80103;BME280;69865;47.648;19.030;2023-12-29T00:42:16;100959.59;;;-0.37;100.00
80103;BME280;69865;47.648;19.030;2023-12-29T00:42:48;100958.75;;;-0.38;100.00
80103;BME280;69865;47.648;19.030;2023-12-29T00:43:20;100953.69;;;-0.42;100.00
80103;BME280;69865;47.648;19.030;2023-12-29T00:43:52;100966.63;;;-0.42;100.00
80103;BME280;69865;47.648;19.030;2023-12-29T00:44:25;100952.91;;;-0.44;100.00
80103;BME280;69865;47.648;19.030;2023-12-29T00:44:58;100952.22;;;-0.50;100.00
80103;BME280;69865;47.648;19.030;2023-12-29T00:45:30;100958.13;;;-0.46;100.00
80103;BME280;69865;47.648;19.030;2023-12-29T00:46:02;100954.69;;;-0.47;100.00
80103;BME280;69865;47.648;19.030;2023-12-29T00:46:34;100955.59;;;-0.48;100.00
80103;BME280;69865;47.648;19.030;2023-12-29T00:47:06;100957.41;;;-0.51;100.00
80103;BME280;69865;47.648;19.030;2023-12-29T00:47:38;100951.50;;;-0.55;100.00
80103;BME280;69865;47.648;19.030;2023-12-29T00:48:11;100949.91;;;-0.59;100.00
80103;BME280;69865;47.648;19.030;2023-12-29T00:48:44;100951.63;;;-0.59;100.00
80103;BME280;69865;47.648;19.030;2023-12-29T00:49:16;100948.31;;;-0.63;100.00
80103;BME280;69865;47.648;19.030;2023-12-29T00:49:48;100943.97;;;-0.62;100.00
80103;BME280;69865;47.648;19.030;2023-12-29T00:50:21;100942.34;;;-0.65;100.00
80103;BME280;69865;47.648;19.030;2023-12-29T00:50:53;100945.03;;;-0.68;100.00
80103;BME280;69865;47.648;19.030;2023-12-29T00:51:25;100947.63;;;-0.68;100.00
80103;BME280;69865;47.648;19.030;2023-12-29T00:51:57;100948.38;;;-0.64;100.00
80103;BME280;69865;47.648;19.030;2023-12-29T00:52:29;100946.66;;;-0.65;100.00
80103;BME280;69865;47.648;19.030;2023-12-29T00:53:01;100948.41;;;-0.66;100.00
80103;BME280;69865;47.648;19.030;2023-12-29T00:53:35;100945.81;;;-0.66;100.00
80103;BME280;69865;47.648;19.030;2023-12-29T00:54:07;100946.72;;;-0.67;100.00
80103;BME280;69865;47.648;19.030;2023-12-29T00:54:48;100944.19;;;-0.68;100.00
80103;BME280;69865;47.648;19.030;2023-12-29T00:55:20;100947.75;;;-0.72;100.00
80103;BME280;69865;47.648;19.030;2023-12-29T00:55:52;100946.91;;;-0.73;100.00
80103;BME280;69865;47.648;19.030;2023-12-29T00:56:24;100947.75;;;-0.72;100.00
80103;BME280;69865;47.648;19.030;2023-12-29T00:56:56;100948.53;;;-0.70;100.00
80103;BME280;69865;47.648;19.030;2023-12-29T00:57:28;100958.84;;;-0.69;100.00
80103;BME280;69865;47.648;19.030;2023-12-29T00:58:01;100947.66;;;-0.69;100.00
80103;BME280;69865;47.648;19.030;2023-12-29T00:58:33;100959.75;;;-0.70;100.00
80103;BME280;69865;47.648;19.030;2023-12-29T00:59:05;100955.41;;;-0.69;100.00
80103;BME280;69865;47.648;19.030;2023-12-29T00:59:39;100956.28;;;-0.69;100.00
80103;BME280;69865;47.648;19.030;2023-12-29T01:00:12;100958.00;;;-0.69;100.00
80103;BME280;69865;47.648;19.030;2023-12-29T01:00:44;100964.06;;;-0.70;100.00
80103;BME280;69865;47.648;19.030;2023-12-29T01:01:17;100962.31;;;-0.70;100.00
80103;BME280;69865;47.648;19.030;2023-12-29T01:01:52;100958.03;;;-0.71;100.00
80103;BME280;69865;47.648;19.030;2023-12-29T01:02:24;100954.56;;;-0.70;100.00
80103;BME280;69865;47.648;19.030;2023-12-29T01:02:57;100960.56;;;-0.68;100.00
80103;BME280;69865;47.648;19.030;2023-12-29T01:03:29;100954.44;;;-0.65;100.00
80103;BME280;69865;47.648;19.030;2023-12-29T01:04:01;100955.19;;;-0.62;100.00
80103;BME280;69865;47.648;19.030;2023-12-29T01:04:34;100961.97;;;-0.59;100.00
80103;BME280;69865;47.648;19.030;2023-12-29T01:05:09;100964.53;;;-0.58;100.00
80103;BME280;69865;47.648;19.030;2023-12-29T01:05:42;100966.28;;;-0.58;100.00
80103;BME280;69865;47.648;19.030;2023-12-29T01:06:14;100967.13;;;-0.58;100.00
80103;BME280;69865;47.648;19.030;2023-12-29T01:06:47;100960.22;;;-0.57;100.00
80103;BME280;69865;47.648;19.030;2023-12-29T01:07:19;100967.91;;;-0.56;100.00
80103;BME280;69865;47.648;19.030;2023-12-29T01:07:51;100962.69;;;-0.54;100.00
80103;BME280;69865;47.648;19.030;2023-12-29T01:08:23;100964.41;;;-0.53;100.00
80103;BME280;69865;47.648;19.030;2023-12-29T01:08:56;100962.66;;;-0.53;100.00
80103;BME280;69865;47.648;19.030;2023-12-29T01:09:31;100967.91;;;-0.56;100.00
80103;BME280;69865;47.648;19.030;2023-12-29T01:10:04;100961.84;;;-0.55;100.00
80103;BME280;69865;47.648;19.030;2023-12-29T01:10:36;100963.59;;;-0.55;100.00
80103;BME280;69865;47.648;19.030;2023-12-29T01:11:09;100960.13;;;-0.54;100.00
80103;BME280;69865;47.648;19.030;2023-12-29T01:11:47;100969.50;;;-0.52;100.00
80103;BME280;69865;47.648;19.030;2023-12-29T01:12:19;100958.41;;;-0.55;100.00
80103;BME280;69865;47.648;19.030;2023-12-29T01:12:51;100961.91;;;-0.56;100.00
80103;BME280;69865;47.648;19.030;2023-12-29T01:13:23;100967.09;;;-0.56;100.00
80103;BME280;69865;47.648;19.030;2023-12-29T01:13:56;100960.13;;;-0.54;100.00
80103;BME280;69865;47.648;19.030;2023-12-29T01:14:28;100956.53;;;-0.50;100.00
80103;BME280;69865;47.648;19.030;2023-12-29T01:15:02;100959.75;;;-0.43;100.00
80103;BME280;69865;47.648;19.030;2023-12-29T01:15:34;100959.75;;;-0.43;100.00
80103;BME280;69865;47.648;19.030;2023-12-29T01:16:06;100964.16;;;-0.45;100.00
80103;BME280;69865;47.648;19.030;2023-12-29T01:16:38;100968.44;;;-0.44;100.00
80103;BME280;69865;47.648;19.030;2023-12-29T01:17:11;100971.06;;;-0.46;100.00
80103;BME280;69865;47.648;19.030;2023-12-29T01:17:43;100972.09;;;-0.52;100.00
80103;BME280;69865;47.648;19.030;2023-12-29T01:18:16;100965.53;;;-0.62;100.00
80103;BME280;69865;47.648;19.030;2023-12-29T01:18:48;100975.00;;;-0.61;100.00
80103;BME280;69865;47.648;19.030;2023-12-29T01:19:20;100970.69;;;-0.62;100.00
80103;BME280;69865;47.648;19.030;2023-12-29T01:19:53;100965.56;;;-0.63;100.00
80103;BME280;69865;47.648;19.030;2023-12-29T01:20:25;100968.25;;;-0.66;100.00
80103;BME280;69865;47.648;19.030;2023-12-29T01:20:58;100970.97;;;-0.71;100.00
80103;BME280;69865;47.648;19.030;2023-12-29T01:21:30;100966.78;;;-0.75;100.00
80103;BME280;69865;47.648;19.030;2023-12-29T01:22:03;100967.63;;;-0.74;100.00
80103;BME280;69865;47.648;19.030;2023-12-29T01:22:35;100963.28;;;-0.72;100.00
80103;BME280;69865;47.648;19.030;2023-12-29T01:23:07;100964.13;;;-0.72;100.00
80103;BME280;69865;47.648;19.030;2023-12-29T01:23:40;100958.00;;;-0.69;100.00
80103;BME280;69865;47.648;19.030;2023-12-29T01:24:12;100963.22;;;-0.71;100.00
80103;BME280;69865;47.648;19.030;2023-12-29T01:24:46;100957.13;;;-0.68;100.00
80103;BME280;69865;47.648;19.030;2023-12-29T01:25:19;100962.28;;;-0.68;100.00
80103;BME280;69865;47.648;19.030;2023-12-29T01:25:51;100964.78;;;-0.65;100.00
80103;BME280;69865;47.648;19.030;2023-12-29T01:26:23;100962.13;;;-0.64;100.00
80103;BME280;69865;47.648;19.030;2023-12-29T01:26:56;100968.22;;;-0.65;100.00
80103;BME280;69865;47.648;19.030;2023-12-29T01:27:29;100957.06;;;-0.67;100.00
80103;BME280;69865;47.648;19.030;2023-12-29T01:28:01;100966.53;;;-0.67;100.00
80103;BME280;69865;47.648;19.030;2023-12-29T01:28:34;100960.50;;;-0.66;100.00
80103;BME280;69865;47.648;19.030;2023-12-29T01:29:07;100961.44;;;-0.69;100.00
80103;BME280;69865;47.648;19.030;2023-12-29T01:29:39;100960.59;;;-0.69;100.00
80103;BME280;69865;47.648;19.030;2023-12-29T01:30:13;100959.78;;;-0.71;100.00
80103;BME280;69865;47.648;19.030;2023-12-29T01:30:45;100954.59;;;-0.71;100.00
80103;BME280;69865;47.648;19.030;2023-12-29T01:31:19;100958.03;;;-0.71;100.00
80103;BME280;69865;47.648;19.030;2023-12-29T01:31:51;100959.59;;;-0.65;100.00
80103;BME280;69865;47.648;19.030;2023-12-29T01:32:23;100957.16;;;-0.70;100.00
80103;BME280;69865;47.648;19.030;2023-12-29T01:32:55;100958.03;;;-0.71;100.00
80103;BME280;69865;47.648;19.030;2023-12-29T01:33:27;100957.19;;;-0.71;100.00
80103;BME280;69865;47.648;19.030;2023-12-29T01:34:00;100949.50;;;-0.73;100.00
80103;BME280;69865;47.648;19.030;2023-12-29T01:34:32;100950.28;;;-0.71;100.00
80103;BME280;69865;47.648;19.030;2023-12-29T01:35:05;100952.00;;;-0.71;100.00
80103;BME280;69865;47.648;19.030;2023-12-29T01:35:39;100954.66;;;-0.73;100.00
80103;BME280;69865;47.648;19.030;2023-12-29T01:36:17;100953.78;;;-0.72;100.00
80103;BME280;69865;47.648;19.030;2023-12-29T01:36:56;100951.13;;;-0.70;100.00
80103;BME280;69865;47.648;19.030;2023-12-29T01:37:28;100945.91;;;-0.69;100.00
80103;BME280;69865;47.648;19.030;2023-12-29T01:38:02;100943.34;;;-0.69;100.00
80103;BME280;69865;47.648;19.030;2023-12-29T01:38:34;100943.34;;;-0.69;100.00
80103;BME280;69865;47.648;19.030;2023-12-29T01:39:06;100948.44;;;-0.67;100.00
80103;BME280;69865;47.648;19.030;2023-12-29T01:39:38;100940.69;;;-0.67;100.00
80103;BME280;69865;47.648;19.030;2023-12-29T01:40:11;100938.94;;;-0.67;100.00
80103;BME280;69865;47.648;19.030;2023-12-29T01:40:44;100938.94;;;-0.67;100.00
80103;BME280;69865;47.648;19.030;2023-12-29T01:41:19;100942.34;;;-0.65;100.00
80103;BME280;69865;47.648;19.030;2023-12-29T01:41:51;100942.44;;;-0.68;100.00
80103;BME280;69865;47.648;19.030;2023-12-29T01:42:23;100933.00;;;-0.69;100.00
80103;BME280;69865;47.648;19.030;2023-12-29T01:42:55;100931.19;;;-0.67;100.00
80103;BME280;69865;47.648;19.030;2023-12-29T01:43:27;100938.94;;;-0.67;100.00
80103;BME280;69865;47.648;19.030;2023-12-29T01:44:18;100938.09;;;-0.67;100.00
80103;BME280;69865;47.648;19.030;2023-12-29T01:44:50;100934.69;;;-0.68;100.00
80103;BME280;69865;47.648;19.030;2023-12-29T01:45:24;100927.72;;;-0.66;100.00
80103;BME280;69865;47.648;19.030;2023-12-29T01:45:56;100929.34;;;-0.63;100.00
80103;BME280;69865;47.648;19.030;2023-12-29T01:46:31;100928.56;;;-0.65;100.00
80103;BME280;69865;47.648;19.030;2023-12-29T01:47:11;100926.88;;;-0.66;100.00
80103;BME280;69865;47.648;19.030;2023-12-29T01:47:46;100929.53;;;-0.68;100.00
80103;BME280;69865;47.648;19.030;2023-12-29T01:48:19;100924.19;;;-0.63;100.00
80103;BME280;69865;47.648;19.030;2023-12-29T01:48:52;100929.34;;;-0.63;100.00
80103;BME280;69865;47.648;19.030;2023-12-29T01:49:25;100927.50;;;-0.60;100.00
80103;BME280;69865;47.648;19.030;2023-12-29T01:49:58;100932.63;;;-0.57;100.00
80103;BME280;69865;47.648;19.030;2023-12-29T01:50:30;100925.59;;;-0.53;100.00
80103;BME280;69865;47.648;19.030;2023-12-29T01:51:03;100927.38;;;-0.55;100.00
80103;BME280;69865;47.648;19.030;2023-12-29T01:51:36;100929.97;;;-0.55;100.00
80103;BME280;69865;47.648;19.030;2023-12-29T01:52:08;100932.41;;;-0.51;100.00
80103;BME280;69865;47.648;19.030;2023-12-29T01:52:43;100929.81;;;-0.51;100.00
80103;BME280;69865;47.648;19.030;2023-12-29T01:53:16;100934.25;;;-0.54;100.00
80103;BME280;69865;47.648;19.030;2023-12-29T01:53:49;100931.69;;;-0.56;100.00
80103;BME280;69865;47.648;19.030;2023-12-29T01:54:24;100936.06;;;-0.56;100.00
80103;BME280;69865;47.648;19.030;2023-12-29T01:54:56;100933.50;;;-0.58;100.00
80103;BME280;69865;47.648;19.030;2023-12-29T01:55:29;100936.84;;;-0.54;100.00
80103;BME280;69865;47.648;19.030;2023-12-29T01:56:02;100934.13;;;-0.51;100.00
80103;BME280;69865;47.648;19.030;2023-12-29T01:56:34;100935.06;;;-0.52;100.00
80103;BME280;69865;47.648;19.030;2023-12-29T01:57:07;100930.66;;;-0.50;100.00
80103;BME280;69865;47.648;19.030;2023-12-29T01:57:40;100941.00;;;-0.50;100.00
80103;BME280;69865;47.648;19.030;2023-12-29T01:58:12;100934.94;;;-0.49;100.00
80103;BME280;69865;47.648;19.030;2023-12-29T01:58:44;100935.84;;;-0.50;100.00
80103;BME280;69865;47.648;19.030;2023-12-29T01:59:19;100940.97;;;-0.49;100.00
80103;BME280;69865;47.648;19.030;2023-12-29T01:59:57;100933.16;;;-0.47;100.00
80103;BME280;69865;47.648;19.030;2023-12-29T02:00:30;100935.72;;;-0.47;100.00
80103;BME280;69865;47.648;19.030;2023-12-29T02:01:04;100934.88;;;-0.48;100.00
80103;BME280;69865;47.648;19.030;2023-12-29T02:01:38;100940.97;;;-0.49;100.00
80103;BME280;69865;47.648;19.030;2023-12-29T02:02:12;100929.78;;;-0.49;100.00
80103;BME280;69865;47.648;19.030;2023-12-29T02:02:46;100928.13;;;-0.52;100.00
80103;BME280;69865;47.648;19.030;2023-12-29T02:03:19;100935.72;;;-0.47;100.00
80103;BME280;69865;47.648;19.030;2023-12-29T02:03:51;100924.47;;;-0.44;100.00
80103;BME280;69865;47.648;19.030;2023-12-29T02:04:24;100930.25;;;-0.36;100.00
80103;BME280;69865;47.648;19.030;2023-12-29T02:04:57;100931.88;;;-0.34;100.00
80103;BME280;69865;47.648;19.030;2023-12-29T02:05:30;100935.34;;;-0.35;100.00
80103;BME280;69865;47.648;19.030;2023-12-29T02:06:07;100936.94;;;-0.31;100.00
80103;BME280;69865;47.648;19.030;2023-12-29T02:06:41;100931.88;;;-0.34;100.00
80103;BME280;69865;47.648;19.030;2023-12-29T02:07:13;100926.69;;;-0.34;100.00
80103;BME280;69865;47.648;19.030;2023-12-29T02:07:45;100925.06;;;-0.36;100.00
80103;BME280;69865;47.648;19.030;2023-12-29T02:08:18;100931.88;;;-0.34;100.00
80103;BME280;69865;47.648;19.030;2023-12-29T02:08:51;100926.66;;;-0.32;100.00
80103;BME280;69865;47.648;19.030;2023-12-29T02:09:23;100931.75;;;-0.31;100.00
80103;BME280;69865;47.648;19.030;2023-12-29T02:09:55;100923.88;;;-0.28;100.00
80103;BME280;69865;47.648;19.030;2023-12-29T02:10:27;100925.69;;;-0.30;100.00
80103;BME280;69865;47.648;19.030;2023-12-29T02:10:59;100923.88;;;-0.28;100.00
80103;BME280;69865;47.648;19.030;2023-12-29T02:11:32;100923.00;;;-0.27;100.00
80103;BME280;69865;47.648;19.030;2023-12-29T02:12:05;100926.44;;;-0.26;100.00
80103;BME280;69865;47.648;19.030;2023-12-29T02:12:37;100925.56;;;-0.25;100.00
80103;BME280;69865;47.648;19.030;2023-12-29T02:13:09;100921.16;;;-0.23;100.00
80103;BME280;69865;47.648;19.030;2023-12-29T02:13:41;100921.16;;;-0.23;100.00
80103;BME280;69865;47.648;19.030;2023-12-29T02:14:14;100913.50;;;-0.26;100.00
80103;BME280;69865;47.648;19.030;2023-12-29T02:14:47;100927.19;;;-0.23;100.00
80103;BME280;69865;47.648;19.030;2023-12-29T02:15:20;100922.84;;;-0.22;100.00
80103;BME280;69865;47.648;19.030;2023-12-29T02:15:55;100926.25;;;-0.20;100.00
80103;BME280;69865;47.648;19.030;2023-12-29T02:16:38;100927.88;;;-0.18;100.00
80103;BME280;69865;47.648;19.030;2023-12-29T02:17:15;100916.66;;;-0.17;100.00
80103;BME280;69865;47.648;19.030;2023-12-29T02:17:59;100922.56;;;-0.13;100.00
80103;BME280;69865;47.648;19.030;2023-12-29T02:18:34;100930.25;;;-0.12;100.00
80103;BME280;69865;47.648;19.030;2023-12-29T02:19:20;100926.84;;;-0.12;100.00
80103;BME280;69865;47.648;19.030;2023-12-29T02:19:56;100917.44;;;-0.15;100.00
80103;BME280;69865;47.648;19.030;2023-12-29T02:20:29;100921.72;;;-0.14;100.00
80103;BME280;69865;47.648;19.030;2023-12-29T02:21:02;100920.97;;;-0.17;100.00
80103;BME280;69865;47.648;19.030;2023-12-29T02:21:34;100926.00;;;-0.13;100.00
80103;BME280;69865;47.648;19.030;2023-12-29T02:22:07;100926.88;;;-0.14;100.00
80103;BME280;69865;47.648;19.030;2023-12-29T02:22:40;100919.91;;;-0.12;100.00
80103;BME280;69865;47.648;19.030;2023-12-29T02:23:12;100924.19;;;-0.11;100.00
80103;BME280;69865;47.648;19.030;2023-12-29T02:23:44;100920.72;;;-0.10;100.00
80103;BME280;69865;47.648;19.030;2023-12-29T02:24:16;100913.91;;;-0.12;100.00
80103;BME280;69865;47.648;19.030;2023-12-29T02:24:50;100919.97;;;-0.13;100.00
80103;BME280;69865;47.648;19.030;2023-12-29T02:25:23;100910.50;;;-0.14;100.00
80103;BME280;69865;47.648;19.030;2023-12-29T02:26:01;100907.97;;;-0.16;100.00
80103;BME280;69865;47.648;19.030;2023-12-29T02:26:36;100915.56;;;-0.11;100.00
80103;BME280;69865;47.648;19.030;2023-12-29T02:27:22;100909.53;;;-0.12;100.00
80103;BME280;69865;47.648;19.030;2023-12-29T02:27:58;100912.97;;;-0.11;100.00
80103;BME280;69865;47.648;19.030;2023-12-29T02:28:34;100912.09;;;-0.10;100.00
80103;BME280;69865;47.648;19.030;2023-12-29T02:29:11;100911.22;;;-0.09;100.00
80103;BME280;69865;47.648;19.030;2023-12-29T02:29:56;100908.63;;;-0.09;100.00
80103;BME280;69865;47.648;19.030;2023-12-29T02:30:37;100908.66;;;-0.11;100.00
80103;BME280;69865;47.648;19.030;2023-12-29T02:31:16;100903.56;;;-0.12;100.00
80103;BME280;69865;47.648;19.030;2023-12-29T02:31:53;100909.72;;;-0.16;100.00
80103;BME280;69865;47.648;19.030;2023-12-29T02:32:30;100903.59;;;-0.14;100.00
80103;BME280;69865;47.648;19.030;2023-12-29T02:33:05;100903.59;;;-0.14;100.00
80103;BME280;69865;47.648;19.030;2023-12-29T02:33:41;100910.50;;;-0.14;100.00
80103;BME280;69865;47.648;19.030;2023-12-29T02:34:18;100908.78;;;-0.14;100.00
80103;BME280;69865;47.648;19.030;2023-12-29T02:34:52;100903.72;;;-0.17;100.00
80103;BME280;69865;47.648;19.030;2023-12-29T02:35:27;100913.25;;;-0.19;100.00
80103;BME280;69865;47.648;19.030;2023-12-29T02:36:01;100902.03;;;-0.19;100.00
80103;BME280;69865;47.648;19.030;2023-12-29T02:36:35;100906.38;;;-0.20;100.00
80103;BME280;69865;47.648;19.030;2023-12-29T02:37:09;100900.31;;;-0.19;100.00
80103;BME280;69865;47.648;19.030;2023-12-29T02:37:44;100895.88;;;-0.15;100.00
80103;BME280;69865;47.648;19.030;2023-12-29T02:38:16;100900.13;;;-0.13;100.00
80103;BME280;69865;47.648;19.030;2023-12-29T02:38:49;100898.38;;;-0.12;100.00
80103;BME280;69865;47.648;19.030;2023-12-29T02:39:21;100894.94;;;-0.13;100.00
80103;BME280;69865;47.648;19.030;2023-12-29T02:39:56;100894.19;;;-0.16;100.00
80103;BME280;69865;47.648;19.030;2023-12-29T02:40:29;100894.94;;;-0.13;100.00
80103;BME280;69865;47.648;19.030;2023-12-29T02:41:02;100892.50;;;-0.17;100.00
80103;BME280;69865;47.648;19.030;2023-12-29T02:41:34;100904.59;;;-0.18;100.00
80103;BME280;69865;47.648;19.030;2023-12-29T02:42:06;100898.69;;;-0.21;100.00
80103;BME280;69865;47.648;19.030;2023-12-29T02:42:38;100896.97;;;-0.22;100.00
80103;BME280;69865;47.648;19.030;2023-12-29T02:43:16;100899.66;;;-0.25;100.00
80103;BME280;69865;47.648;19.030;2023-12-29T02:43:48;100899.72;;;-0.27;100.00
80103;BME280;69865;47.648;19.030;2023-12-29T02:44:21;100903.16;;;-0.26;100.00
80103;BME280;69865;47.648;19.030;2023-12-29T02:44:53;100904.78;;;-0.24;100.00
80103;BME280;69865;47.648;19.030;2023-12-29T02:45:26;100900.44;;;-0.23;100.00
80103;BME280;69865;47.648;19.030;2023-12-29T02:45:58;100906.47;;;-0.23;100.00
80103;BME280;69865;47.648;19.030;2023-12-29T02:46:30;100897.81;;;-0.22;100.00
80103;BME280;69865;47.648;19.030;2023-12-29T02:47:03;100898.69;;;-0.21;100.00
80103;BME280;69865;47.648;19.030;2023-12-29T02:47:35;100904.75;;;-0.22;100.00
80103;BME280;69865;47.648;19.030;2023-12-29T02:48:07;100908.22;;;-0.23;100.00
80103;BME280;69865;47.648;19.030;2023-12-29T02:48:40;100906.59;;;-0.26;100.00
80103;BME280;69865;47.648;19.030;2023-12-29T02:49:12;100902.31;;;-0.27;100.00
80103;BME280;69865;47.648;19.030;2023-12-29T02:49:45;100903.19;;;-0.28;100.00
80103;BME280;69865;47.648;19.030;2023-12-29T02:50:18;100895.50;;;-0.29;100.00